This is the latest recevied weather packets stored in our database for station/object IU7LMH-13. If no packets are shown the sender has not sent any weather packets the latest 10 day(s).
| Time | Temp. | Humidity | Pressure | Rain* | Wind** | Luminosity | Snow |
|---|---|---|---|---|---|---|---|
| 1777646445 | 18.33° C | 32% | 1019.5 hPa | 0 mm | - | - | - |
| 1777646316 | 18.33° C | 34% | 1019.3 hPa | 0 mm | - | - | - |
| 1777645358 | 18.33° C | 35% | 1019.2 hPa | 0 mm | - | - | - |
| 1777644160 | 18.33° C | 36% | 1019.3 hPa | 0 mm | - | - | - |
| 1777644045 | 18.33° C | 36% | 1019.4 hPa | 0 mm | - | - | - |
| 1777643441 | 18.89° C | 36% | 1019.2 hPa | 0 mm | - | - | - |
| 1777641877 | 18.33° C | 35% | 1019.6 hPa | 0 mm | - | - | - |
| 1777640197 | 18.89° C | 37% | 1019.6 hPa | 0 mm | - | - | - |
| 1777639477 | 18.33° C | 40% | 1019.9 hPa | 0 mm | - | - | - |
| 1777639357 | 18.33° C | 38% | 1019.8 hPa | 0 mm | - | - | - |
| 1777638397 | 18.89° C | 39% | 1019.7 hPa | 0 mm | - | - | - |
| 1777635996 | 17.78° C | 41% | 1020.1 hPa | 0 mm | - | - | - |
| 1777635398 | 18.33° C | 41% | 1020.3 hPa | 0 mm | - | - | - |
| 1777635277 | 18.33° C | 39% | 1020.2 hPa | 0 mm | - | - | - |
| 1777634198 | 18.33° C | 39% | 1020 hPa | 0 mm | - | - | - |
| 1777630598 | 17.78° C | 43% | 1020.2 hPa | 0 mm | - | - | - |
| 1777629397 | 17.78° C | 42% | 1020.1 hPa | 0 mm | - | - | - |
| 1777627958 | 18.33° C | 42% | 1020.1 hPa | 0 mm | - | - | - |
| 1777627477 | 17.78° C | 43% | 1020.3 hPa | 0 mm | - | - | - |
| 1777627117 | 17.78° C | 44% | 1020.2 hPa | 0 mm | - | - | - |
| 1777626996 | 17.78° C | 44% | 1020.7 hPa | 0 mm | - | - | - |
| 1777625198 | 16.11° C | 49% | 1020.3 hPa | 0 mm | - | - | - |
| 1777624118 | 16.11° C | 52% | 1020.4 hPa | 0 mm | - | - | - |
| 1777623757 | 16.11° C | 52% | 1020.3 hPa | 0 mm | - | - | - |
| 1777623517 | 16.67° C | 50% | 1020.5 hPa | 0 mm | - | - | - |
* Rain latest hour (hover to see other rain measurements)
** Current wind speed in m/s (hover to see current wind gust speed)